RJCJ(METAR)
05/26 17:00
METAR RJCJ 260800Z 01008KT 9999 FEW020 BKN210 17/10 Q1006 RMK 1SC020
A2973=
戻る
トップページへ戻る
IMOC Co,.Ltd.